CheckWX is a tool to help pilots better visualize weather data.  It is not intended as a substitute for an official pre-flight weather briefing.

00:49:25 UTC

ESMX TAF
Växjö Kronoberg Airport
Växjö, Sweden
TAF ESMX 262030Z 2621/2701 24004KT CAVOK

Mar-26@
21:00 UTC

Mar-26 @ 21:00 UTC

Mar-27@
01:00 UTC

Mar-27 @ 01:00 UTC

TAF ESMX 262030Z 2621/2701 24004KT CAVOK
Wind
  • 240° at 4 KTS
Conditions
No significant weather
Cloud Levels
  • No significant clouds